LFOB/BVA METAR and TAF weather

Enter ICAO airport designator
Station Type Date Time Source
LFOB METAR 2021/05/12 02:30 UTC NOAA

LFOB 120230Z AUTO 20003KT 140V230 CAVOK 06/05 Q1012 TEMPO 4000 BR


Station Type Date Time Source
LFOB Decoded METAR 2021/05/12 02:30 UTC NOAA

Beauvais, France (LFOB) 49-28N 002-07E 111M
May 11, 2021 - 10:30 PM EDT / 2021.05.12 0230 UTC
Wind: from the SSW (200 degrees) at 3 MPH (3 KT) (direction variable):0
Visibility: greater than 7 mile(s):0
Temperature: 42 F (6 C)
Dew Point: 41 F (5 C)
Relative Humidity: 93%
Pressure (altimeter): 29.88 in. Hg (1012 hPa)
ob: LFOB 120230Z AUTO 20003KT 140V230 CAVOK 06/05 Q1012 TEMPO 4000 BR
cycle: 2

Station Type Date Time Source
LFOB TAF 2021/05/11 18:24 UTC NOAA

TAF
AMD TAF
AMD LFOB 111722Z 1118/1218 22008KT CAVOK
TEMPO 1118/1121 3000 SHRA BKN030CB PROB30
TEMPO 1203/1206 4000 BR
TEMPO 1206/1208 BKN007
TEMPO 1210/1218 3000 SHRA BKN030TCU PROB40
TEMPO 1214/1218 BKN030CB

Example: see airport list